Gaschem Jade — ELSU9 — position and weather

sailwx.info

Track history (hours):
 
Tides and Currents Weather Stations Pressure Air Temp Water Temp Dewpoint Dewpoint Depression Visibility Wind Speed Wind Dir Waves Ship Positions

Gaschem Jade

Last reported at 2015-May-19 16:18 UTC. Time now 2015-May-24 07:11 UTC.
Position N 35°44' W 001°46'.

Length 113.2 m; beam 15.9 m; draft 6.1 m.

Type: Ship. MMSI: 636090168.

Date/timePositionNaut miles runAvg speedWind from/ knotsBaromVisibWave heightAir tempDewpointWater temp
2015-May-19 16:18N 35°44' W 001°46'6 7.9
2015-May-19 15:33N 35°47' W 001°39'19 8.5
2015-May-19 13:17N 35°56' W 001°18'710.3
2015-May-19 12:33N 35°57' W 001°09'  
2015-May-14 14:13N 35°53' W 000°14'710.2
2015-May-14 13:33N 35°60' W 000°12'1 0.9
2015-May-14 12:32N 36°00' W 000°13'2 1.0
2015-May-14 10:33N 36°00' W 000°15'12 2.9
2015-May-14 06:33N 36°12' W 000°16'1 1.4
2015-May-14 05:32N 36°11' W 000°16'1 1.1
2015-May-14 04:33N 36°10' W 000°17'1 1.1
2015-May-14 03:33N 36°09' W 000°17'1 1.1
2015-May-14 02:33N 36°07' W 000°17'1 1.1
2015-May-14 01:30N 36°06' W 000°18'1 0.7
2015-May-14 00:33N 36°06' W 000°17'1 0.6
2015-May-13 23:22N 36°05' W 000°17'0 0.5
2015-May-13 22:33N 36°05' W 000°17'1 0.2
2015-May-13 20:27N 36°04' W 000°17'1 0.3
2015-May-13 17:33N 36°05' W 000°16'9 7.8
2015-May-13 16:21N 35°55' W 000°14'1 1.3
2015-May-13 15:33N 35°54' W 000°14'4 1.8
2015-May-13 13:33N 35°58' W 000°12'1 0.6
2015-May-13 12:33N 35°58' W 000°12'1 0.7
2015-May-13 11:26N 35°59' W 000°12'1 0.5
2015-May-13 10:21N 35°60' W 000°12'0 0.5
2015-May-13 09:33N 35°60' W 000°12'5 4.8
2015-May-13 08:33N 36°04' W 000°08'1211.8
2015-May-13 07:32N 36°13' W 000°17'3 0.9
2015-May-13 04:27N 36°11' W 000°19'3 0.6
2015-May-13 00:17N 36°08' W 000°20'2 0.4
2015-May-12 18:25N 36°06' W 000°19'0 0.3
2015-May-12 17:07N 36°06' W 000°19'15 0.7
2015-May-11 20:07N 36°03' W 000°37'710.6
2015-May-11 19:29N 36°03' W 000°46'81 2.0
2015-May-10 03:33N 35°32' W 002°19'4 3.6
2015-May-10 02:33N 35°33' W 002°14'9 9.0
2015-May-10 01:33N 35°37' W 002°04'9 8.9
2015-May-10 00:33N 35°40' W 001°54'9 9.1
2015-May-09 23:33N 35°45' W 001°44'10 9.3
2015-May-09 22:30N 35°50' W 001°34'20 9.3
2015-May-09 20:22N 35°57' W 001°11'8 9.2
2015-May-09 19:30N 36°00' W 001°02'20 8.8
2015-May-09 17:15N 36°03' W 000°38'  
Track history (hours):
 
Tides and Currents Weather Stations Pressure Air Temp Water Temp Dewpoint Dewpoint Depression Visibility Wind Speed Wind Dir Waves Ship Positions

Gaschem Jade

Last reported at 2015-May-19 16:18 UTC. Time now 2015-May-24 07:11 UTC.
Position N 35°44' W 001°46'.

Length 113.2 m; beam 15.9 m; draft 6.1 m.

Type: Ship. MMSI: 636090168.

Date/timePositionNaut miles runAvg speedWind from/ knotsBaromVisibWave heightAir tempDewpointWater temp
2015-May-19 16:18N 35°44' W 001°46'6 7.9
2015-May-19 15:33N 35°47' W 001°39'19 8.5
2015-May-19 13:17N 35°56' W 001°18'710.3
2015-May-19 12:33N 35°57' W 001°09'  
2015-May-14 14:13N 35°53' W 000°14'710.2
2015-May-14 13:33N 35°60' W 000°12'1 0.9
2015-May-14 12:32N 36°00' W 000°13'2 1.0
2015-May-14 10:33N 36°00' W 000°15'12 2.9
2015-May-14 06:33N 36°12' W 000°16'1 1.4
2015-May-14 05:32N 36°11' W 000°16'1 1.1
2015-May-14 04:33N 36°10' W 000°17'1 1.1
2015-May-14 03:33N 36°09' W 000°17'1 1.1
2015-May-14 02:33N 36°07' W 000°17'1 1.1
2015-May-14 01:30N 36°06' W 000°18'1 0.7
2015-May-14 00:33N 36°06' W 000°17'1 0.6
2015-May-13 23:22N 36°05' W 000°17'0 0.5
2015-May-13 22:33N 36°05' W 000°17'1 0.2
2015-May-13 20:27N 36°04' W 000°17'1 0.3
2015-May-13 17:33N 36°05' W 000°16'9 7.8
2015-May-13 16:21N 35°55' W 000°14'1 1.3
2015-May-13 15:33N 35°54' W 000°14'4 1.8
2015-May-13 13:33N 35°58' W 000°12'1 0.6
2015-May-13 12:33N 35°58' W 000°12'1 0.7
2015-May-13 11:26N 35°59' W 000°12'1 0.5
2015-May-13 10:21N 35°60' W 000°12'0 0.5
2015-May-13 09:33N 35°60' W 000°12'5 4.8
2015-May-13 08:33N 36°04' W 000°08'1211.8
2015-May-13 07:32N 36°13' W 000°17'3 0.9
2015-May-13 04:27N 36°11' W 000°19'3 0.6
2015-May-13 00:17N 36°08' W 000°20'2 0.4
2015-May-12 18:25N 36°06' W 000°19'0 0.3
2015-May-12 17:07N 36°06' W 000°19'15 0.7
2015-May-11 20:07N 36°03' W 000°37'710.6
2015-May-11 19:29N 36°03' W 000°46'81 2.0
2015-May-10 03:33N 35°32' W 002°19'4 3.6
2015-May-10 02:33N 35°33' W 002°14'9 9.0
2015-May-10 01:33N 35°37' W 002°04'9 8.9
2015-May-10 00:33N 35°40' W 001°54'9 9.1
2015-May-09 23:33N 35°45' W 001°44'10 9.3
2015-May-09 22:30N 35°50' W 001°34'20 9.3
2015-May-09 20:22N 35°57' W 001°11'8 9.2
2015-May-09 19:30N 36°00' W 001°02'20 8.8
2015-May-09 17:15N 36°03' W 000°38'  

Dump ship's entire track history